createdAt,value
2023-01-10T00:01:59.605Z,96551.13
2023-01-10T00:04:27.443Z,96552.06
2023-01-10T00:06:54.630Z,96549.69
2023-01-10T00:09:21.996Z,96550.41
2023-01-10T00:12:08.340Z,96553.19
2023-01-10T00:14:35.460Z,96562.47
2023-01-10T00:17:03.965Z,96552.97
2023-01-10T00:19:32.055Z,96549.47
2023-01-10T00:22:09.157Z,96544.19
2023-01-10T00:24:36.764Z,96570.34
2023-01-10T00:27:04.258Z,96557.09
2023-01-10T00:29:32.572Z,96564.31
2023-01-10T00:32:00.011Z,96556.03
2023-01-10T00:34:27.274Z,96554.53
2023-01-10T00:36:54.495Z,96556.91
2023-01-10T00:39:27.586Z,96556.41
2023-01-10T00:42:13.722Z,96553.59
2023-01-10T00:44:41.289Z,96563.31
2023-01-10T00:47:10.481Z,96562.63
2023-01-10T00:49:37.577Z,96567.06
2023-01-10T00:52:05.321Z,96564.72
2023-01-10T00:54:32.571Z,96569.06
2023-01-10T00:56:59.868Z,96571.03
2023-01-10T00:59:27.144Z,96571.28
2023-01-10T01:01:54.391Z,96577.25
2023-01-10T01:04:22.692Z,96567.06
2023-01-10T01:06:50.969Z,96574.56
2023-01-10T01:09:19.096Z,96564.59
2023-01-10T01:11:46.407Z,96568.31
2023-01-10T01:14:13.752Z,96571.13
2023-01-10T01:16:40.899Z,96570.22
2023-01-10T01:19:08.115Z,96569.03
2023-01-10T01:21:35.214Z,96563.78
2023-01-10T01:24:02.474Z,96562.81
2023-01-10T01:26:29.623Z,96560.94
2023-01-10T01:28:57.060Z,96564.06
2023-01-10T01:31:24.513Z,96570.09
2023-01-10T01:33:51.763Z,96576.84
2023-01-10T01:36:20.178Z,96578.81
2023-01-10T01:38:47.302Z,96572.78
2023-01-10T01:41:33.241Z,96573.97
2023-01-10T01:44:17.620Z,96587.75
2023-01-10T01:46:55.364Z,96588.16
2023-01-10T01:49:24.888Z,96602.66
2023-01-10T01:52:04.375Z,96599.34
2023-01-10T01:54:34.419Z,96598.22
2023-01-10T01:57:14.398Z,96604.69
2023-01-10T01:59:50.235Z,96618.63
2023-01-10T02:03:01.776Z,96619.81
2023-01-10T02:05:45.810Z,96632.31
2023-01-10T02:08:14.098Z,96628.50
2023-01-10T02:11:11.516Z,96630.94
2023-01-10T02:13:44.736Z,96634.50
2023-01-10T02:16:12.551Z,96641.53
2023-01-10T02:18:42.652Z,96643.31
2023-01-10T02:22:13.905Z,96645.72
2023-01-10T02:28:36.243Z,96650.75
2023-01-10T02:31:37.247Z,96664.16
2023-01-10T02:34:21.068Z,96665.81
2023-01-10T02:37:36.044Z,96680.66
2023-01-10T02:40:32.599Z,96674.81
2023-01-10T02:43:20.472Z,96672.06
2023-01-10T02:46:12.297Z,96667.94
2023-01-10T02:48:42.726Z,96664.88
2023-01-10T02:51:37.317Z,96670.84
2023-01-10T02:54:23.755Z,96675.09
2023-01-10T02:57:29.802Z,96671.75
2023-01-10T03:00:22.233Z,96673.09
2023-01-10T03:03:08.895Z,96671.50
2023-01-10T03:06:14.261Z,96664.94
2023-01-10T03:09:00.000Z,96672.59
2023-01-10T03:11:44.817Z,96670.13
2023-01-10T03:14:24.566Z,96684.63
2023-01-10T03:17:09.745Z,96690.91
2023-01-10T03:20:05.919Z,96692.31
2023-01-10T03:22:39.551Z,96700.69
2023-01-10T03:25:13.608Z,96707.28
2023-01-10T03:28:00.856Z,96713.25
2023-01-10T03:30:59.565Z,96721.34
2023-01-10T03:33:32.315Z,96726.63
2023-01-10T03:36:11.266Z,96725.53
2023-01-10T03:38:57.984Z,96729.78
2023-01-10T03:42:01.529Z,96731.22
2023-01-10T03:45:08.013Z,96746.66
2023-01-10T03:47:47.596Z,96754.63
2023-01-10T03:50:26.352Z,96755.19
2023-01-10T03:52:55.101Z,96753.22
2023-01-10T03:55:31.718Z,96763.78
2023-01-10T03:57:58.971Z,96762.75
2023-01-10T04:00:30.460Z,96765.78
2023-01-10T04:03:03.163Z,96770.19
2023-01-10T04:05:30.479Z,96768.38
2023-01-10T04:08:20.246Z,96764.97
2023-01-10T04:10:49.858Z,96758.28
2023-01-10T04:13:19.303Z,96765.59
2023-01-10T04:15:51.942Z,96773.06
2023-01-10T04:18:24.144Z,96774.22
2023-01-10T04:20:52.382Z,96792.28
2023-01-10T04:23:23.354Z,96794.09
2023-01-10T04:25:51.940Z,96784.72
2023-01-10T04:28:20.551Z,96786.59
2023-01-10T04:30:47.820Z,96791.13
2023-01-10T04:33:19.433Z,96793.97
2023-01-10T04:35:53.441Z,96794.81
2023-01-10T04:38:23.307Z,96801.47
2023-01-10T04:40:55.541Z,96803.47
2023-01-10T04:43:26.523Z,96807.59
2023-01-10T04:45:55.800Z,96807.50
2023-01-10T04:48:25.433Z,96808.38
2023-01-10T04:50:54.569Z,96820.41
2023-01-10T04:53:35.944Z,96819.81
2023-01-10T04:56:23.265Z,96816.56
2023-01-10T04:58:58.899Z,96823.03
2023-01-10T05:01:27.428Z,96831.19
2023-01-10T05:04:04.163Z,96835.81
2023-01-10T05:06:34.506Z,96844.63
2023-01-10T05:09:09.228Z,96844.03
2023-01-10T05:11:40.175Z,96853.38
2023-01-10T05:14:16.690Z,96846.44
2023-01-10T05:17:10.174Z,96859.84
2023-01-10T05:19:38.800Z,96855.28
2023-01-10T05:22:19.164Z,96852.75
2023-01-10T05:24:47.405Z,96852.97
2023-01-10T05:27:14.680Z,96864.28
2023-01-10T05:29:43.270Z,96866.97
2023-01-10T05:32:12.256Z,96862.84
2023-01-10T05:34:39.510Z,96863.72
2023-01-10T05:37:12.867Z,96869.06
2023-01-10T05:39:44.109Z,96878.91
2023-01-10T05:42:11.380Z,96882.22
2023-01-10T05:44:43.498Z,96887.84
2023-01-10T05:47:13.343Z,96892.69
2023-01-10T05:49:42.075Z,96894.06
2023-01-10T05:52:09.274Z,96905.50
2023-01-10T05:54:36.452Z,96908.25
2023-01-10T05:57:03.973Z,96910.00
2023-01-10T05:59:36.638Z,96912.47
2023-01-10T06:02:04.310Z,96922.84
2023-01-10T06:04:31.665Z,96927.63
2023-01-10T06:06:58.875Z,96935.06
2023-01-10T06:09:26.058Z,96928.94
2023-01-10T06:12:04.015Z,96955.41
2023-01-10T06:14:42.348Z,96965.09
2023-01-10T06:17:11.738Z,96958.41
2023-01-10T06:19:42.731Z,96975.19
2023-01-10T06:22:10.530Z,96973.31
2023-01-10T06:24:37.556Z,96982.91
2023-01-10T06:27:04.633Z,96985.50
2023-01-10T06:29:32.550Z,96991.25
2023-01-10T06:32:00.474Z,96991.59
2023-01-10T06:34:27.562Z,96995.38
2023-01-10T06:36:54.728Z,97002.88
2023-01-10T06:39:23.069Z,97009.63
2023-01-10T06:41:53.438Z,97011.94
2023-01-10T06:44:20.806Z,97022.47
2023-01-10T06:46:48.144Z,97020.94
2023-01-10T06:49:20.152Z,97029.41
2023-01-10T06:51:48.365Z,97027.69
2023-01-10T06:54:15.844Z,97027.50
2023-01-10T06:56:43.906Z,97035.75
2023-01-10T06:59:31.625Z,97037.41
2023-01-10T07:01:59.203Z,97037.59
2023-01-10T07:04:31.981Z,97040.91
2023-01-10T07:06:59.178Z,97050.00
2023-01-10T07:09:30.734Z,97050.53
2023-01-10T07:12:01.836Z,97064.78
2023-01-10T07:14:33.053Z,97059.25
2023-01-10T07:17:01.747Z,97064.59
2023-01-10T07:19:29.934Z,97066.06
2023-01-10T07:22:00.756Z,97072.81
2023-01-10T07:24:28.217Z,97080.81
2023-01-10T07:26:58.076Z,97090.59
2023-01-10T07:29:33.371Z,97095.50
2023-01-10T07:32:02.063Z,97095.31
2023-01-10T07:34:31.467Z,97080.28
2023-01-10T07:37:01.449Z,97097.81
2023-01-10T07:39:35.610Z,97098.63
2023-01-10T07:42:03.124Z,97100.28
2023-01-10T07:44:30.313Z,97106.34
2023-01-10T07:46:57.427Z,97109.13
2023-01-10T07:49:24.703Z,97109.31
2023-01-10T07:52:05.939Z,97107.47
2023-01-10T07:54:33.546Z,97115.09
2023-01-10T07:57:15.734Z,97114.53
2023-01-10T07:59:45.887Z,97125.38
2023-01-10T08:02:14.034Z,97123.50
2023-01-10T08:04:41.392Z,97131.41
2023-01-10T08:07:23.736Z,97137.06
2023-01-10T08:09:55.269Z,97148.03
2023-01-10T08:12:25.866Z,97154.88
2023-01-10T08:14:53.869Z,97147.75
2023-01-10T08:17:21.290Z,97154.63
2023-01-10T08:19:48.621Z,97158.81
2023-01-10T08:22:20.226Z,97159.16
2023-01-10T08:24:47.450Z,97170.75
2023-01-10T08:27:19.531Z,97181.97
2023-01-10T08:30:07.713Z,97180.59
2023-01-10T08:32:34.858Z,97182.63
2023-01-10T08:35:02.148Z,97194.13
2023-01-10T08:37:29.507Z,97195.88
2023-01-10T08:39:56.671Z,97194.31
2023-01-10T08:42:26.919Z,97200.44
2023-01-10T08:44:55.526Z,97212.78
2023-01-10T08:47:22.879Z,97205.25
2023-01-10T08:49:50.057Z,97207.84
2023-01-10T08:52:31.396Z,97213.00
2023-01-10T08:54:58.758Z,97226.09
2023-01-10T08:57:57.549Z,97221.88
2023-01-10T09:00:24.732Z,97221.38
2023-01-10T09:02:52.088Z,97230.19
2023-01-10T09:05:27.917Z,97232.31
2023-01-10T09:08:13.519Z,97238.22
2023-01-10T09:10:41.687Z,97250.41
2023-01-10T09:13:09.831Z,97248.91
2023-01-10T09:18:15.642Z,97256.63
2023-01-10T09:20:43.429Z,97259.94
2023-01-10T09:23:28.539Z,97253.19
2023-01-10T09:25:59.338Z,97257.22
2023-01-10T09:28:27.076Z,97257.59
2023-01-10T09:30:54.174Z,97259.59
2023-01-10T09:33:21.316Z,97266.53
2023-01-10T09:35:48.444Z,97279.22
2023-01-10T09:38:19.198Z,97275.69
2023-01-10T09:40:58.340Z,97288.91
2023-01-10T09:44:01.170Z,97290.13
2023-01-10T09:46:46.427Z,97297.06
2023-01-10T09:49:45.439Z,97297.28
2023-01-10T09:52:38.562Z,97298.25
2023-01-10T09:55:33.401Z,97291.75
2023-01-10T09:58:17.821Z,97293.75
2023-01-10T10:00:54.701Z,97308.94
2023-01-10T10:03:40.966Z,97295.31
2023-01-10T10:06:13.486Z,97299.72
2023-01-10T10:08:45.749Z,97300.06
2023-01-10T10:11:40.079Z,97291.81
2023-01-10T10:14:24.885Z,97291.59
2023-01-10T10:17:47.950Z,97293.75
2023-01-10T10:21:11.629Z,97292.91
2023-01-10T10:23:58.027Z,97289.69
2023-01-10T10:26:43.514Z,97290.69
2023-01-10T10:29:32.168Z,97287.13
2023-01-10T10:32:22.861Z,97304.25
2023-01-10T10:35:06.203Z,97293.47
2023-01-10T10:37:43.317Z,97291.06
2023-01-10T10:40:32.862Z,97290.38
2023-01-10T10:43:21.996Z,97281.19
2023-01-10T10:46:00.718Z,97285.88
2023-01-10T10:48:54.636Z,97294.28
2023-01-10T10:51:52.851Z,97278.19
2023-01-10T10:54:20.414Z,97282.97
2023-01-10T10:56:47.733Z,97292.78
2023-01-10T10:59:47.473Z,97313.50
2023-01-10T11:02:47.078Z,97303.09
2023-01-10T11:05:33.366Z,97287.66
2023-01-10T11:08:08.538Z,97310.38
2023-01-10T11:10:36.376Z,97314.97
2023-01-10T11:13:35.535Z,97319.44
2023-01-10T11:16:06.859Z,97311.94
2023-01-10T11:18:35.248Z,97314.28
2023-01-10T11:21:21.250Z,97324.94
2023-01-10T11:23:57.555Z,97331.09
2023-01-10T11:26:27.534Z,97326.34
2023-01-10T11:29:05.844Z,97330.97
2023-01-10T11:31:34.920Z,97329.91
2023-01-10T11:34:16.204Z,97324.94
2023-01-10T11:36:55.200Z,97313.59
2023-01-10T11:39:22.670Z,97309.16
2023-01-10T11:42:23.859Z,97331.69
2023-01-10T11:44:51.421Z,97322.13
2023-01-10T11:47:21.109Z,97326.81
2023-01-10T11:49:50.631Z,97321.13
2023-01-10T11:52:26.180Z,97327.69
2023-01-10T11:54:58.585Z,97327.69
2023-01-10T11:57:32.675Z,97326.81
2023-01-10T12:00:13.486Z,97322.16
2023-01-10T12:02:52.661Z,97318.47
2023-01-10T12:05:24.086Z,97327.06
2023-01-10T12:08:06.790Z,97331.94
2023-01-10T12:10:35.686Z,97325.56
2023-01-10T12:13:17.174Z,97334.50
2023-01-10T12:15:44.461Z,97324.41
2023-01-10T12:18:12.511Z,97328.38
2023-01-10T12:20:52.896Z,97327.94
2023-01-10T12:23:25.405Z,97328.41
2023-01-10T12:26:07.174Z,97322.66
2023-01-10T12:28:44.893Z,97329.66
2023-01-10T12:31:15.793Z,97327.94
2023-01-10T12:33:55.759Z,97342.97
2023-01-10T12:36:28.831Z,97344.63
2023-01-10T12:39:21.883Z,97362.59
2023-01-10T12:42:29.371Z,97365.34
2023-01-10T12:45:12.255Z,97361.00
2023-01-10T12:48:24.807Z,97360.34
2023-01-10T12:51:02.705Z,97360.47
2023-01-10T12:53:41.555Z,97371.19
2023-01-10T12:56:15.830Z,97364.50
2023-01-10T12:58:48.343Z,97365.88
2023-01-10T13:01:24.749Z,97377.56
2023-01-10T13:04:02.397Z,97366.78
2023-01-10T13:06:40.215Z,97373.03
2023-01-10T13:09:22.170Z,97381.50
2023-01-10T13:12:20.588Z,97375.78
2023-01-10T13:14:53.476Z,97369.19
2023-01-10T13:17:32.764Z,97384.25
2023-01-10T13:23:46.885Z,97381.06
2023-01-10T13:26:14.270Z,97392.75
2023-01-10T13:28:53.412Z,97386.88
2023-01-10T13:31:35.401Z,97396.75
2023-01-10T13:34:14.500Z,97401.97
2023-01-10T13:36:53.734Z,97403.72
2023-01-10T13:39:40.237Z,97404.69
2023-01-10T13:42:25.846Z,97409.75
2023-01-10T13:45:02.231Z,97405.63
2023-01-10T13:47:43.402Z,97399.44
2023-01-10T13:50:25.814Z,97403.47
2023-01-10T13:53:18.862Z,97409.75
2023-01-10T13:55:53.917Z,97409.72
2023-01-10T13:58:44.051Z,97406.38
2023-01-10T14:02:00.062Z,97423.34
2023-01-10T14:04:36.796Z,97423.03
2023-01-10T14:07:29.768Z,97431.72
2023-01-10T14:10:09.570Z,97437.84
2023-01-10T14:13:09.486Z,97435.06
2023-01-10T14:15:46.799Z,97441.44
2023-01-10T14:18:39.390Z,97464.56
2023-01-10T14:21:09.663Z,97464.06
2023-01-10T14:23:41.506Z,97471.88
2023-01-10T14:26:22.804Z,97474.56
2023-01-10T14:28:51.280Z,97497.56
2023-01-10T14:31:25.631Z,97492.28
2023-01-10T14:33:55.124Z,97491.22
2023-01-10T14:36:32.444Z,97486.72
2023-01-10T14:39:06.947Z,97489.31
2023-01-10T14:41:45.900Z,97493.03
2023-01-10T14:44:45.984Z,97503.94
2023-01-10T14:47:35.516Z,97511.66
2023-01-10T14:50:03.648Z,97508.47
2023-01-10T14:52:31.502Z,97523.81
2023-01-10T14:55:12.477Z,97522.03
2023-01-10T14:57:40.068Z,97519.94
2023-01-10T15:00:17.816Z,97509.22
2023-01-10T15:02:49.871Z,97505.34
2023-01-10T15:05:27.643Z,97516.56
2023-01-10T15:08:14.186Z,97524.22
2023-01-10T15:10:47.864Z,97521.22
2023-01-10T15:13:18.983Z,97537.53
2023-01-10T15:15:50.002Z,97529.31
2023-01-10T15:18:43.511Z,97531.13
2023-01-10T15:21:18.389Z,97538.13
2023-01-10T15:23:48.310Z,97546.63
2023-01-10T15:26:34.382Z,97546.53
2023-01-10T15:29:19.498Z,97544.31
2023-01-10T15:31:47.302Z,97549.56
2023-01-10T15:34:28.936Z,97547.28
2023-01-10T15:37:02.191Z,97546.06
2023-01-10T15:39:40.677Z,97561.19
2023-01-10T15:42:12.265Z,97551.09
2023-01-10T15:44:48.937Z,97553.97
2023-01-10T15:47:52.744Z,97553.56
2023-01-10T15:50:28.694Z,97564.72
2023-01-10T15:53:03.834Z,97571.09
2023-01-10T15:55:42.878Z,97578.25
2023-01-10T15:58:36.106Z,97579.56
2023-01-10T16:01:04.865Z,97575.56
2023-01-10T16:03:37.068Z,97577.22
2023-01-10T16:06:09.988Z,97580.53
2023-01-10T16:08:38.881Z,97576.81
2023-01-10T16:11:37.798Z,97571.78
2023-01-10T16:14:05.077Z,97590.84
2023-01-10T16:16:32.593Z,97593.50
2023-01-10T16:19:02.556Z,97591.41
2023-01-10T16:21:41.352Z,97585.91
2023-01-10T16:24:27.432Z,97582.63
2023-01-10T16:26:56.900Z,97591.03
2023-01-10T16:29:24.780Z,97596.72
2023-01-10T16:31:53.548Z,97596.94
2023-01-10T16:34:21.591Z,97603.94
2023-01-10T16:36:48.823Z,97609.00
2023-01-10T16:39:22.192Z,97613.59
2023-01-10T16:42:08.990Z,97611.41
2023-01-10T16:44:36.292Z,97616.25
2023-01-10T16:47:06.734Z,97619.44
2023-01-10T16:49:34.684Z,97623.75
2023-01-10T16:52:03.249Z,97627.31
2023-01-10T16:54:31.329Z,97623.13
2023-01-10T16:56:58.488Z,97623.81
2023-01-10T16:59:25.637Z,97629.50
2023-01-10T17:01:58.739Z,97631.31
2023-01-10T17:04:31.453Z,97635.22
2023-01-10T17:06:59.564Z,97632.47
2023-01-10T17:09:30.523Z,97636.63
2023-01-10T17:12:12.472Z,97641.81
2023-01-10T17:14:39.744Z,97642.97
2023-01-10T17:17:06.944Z,97650.09
2023-01-10T17:19:34.426Z,97645.47
2023-01-10T17:22:01.759Z,97649.66
2023-01-10T17:24:30.068Z,97655.78
2023-01-10T17:26:57.369Z,97660.66
2023-01-10T17:29:24.481Z,97664.94
2023-01-10T17:31:51.672Z,97655.03
2023-01-10T17:34:18.936Z,97657.22
2023-01-10T17:36:47.503Z,97656.91
2023-01-10T17:39:15.112Z,97664.28
2023-01-10T17:41:42.170Z,97669.31
2023-01-10T17:44:09.352Z,97670.72
2023-01-10T17:46:36.764Z,97685.69
2023-01-10T17:49:03.970Z,97681.88
2023-01-10T17:51:31.438Z,97692.09
2023-01-10T17:53:58.640Z,97694.50
2023-01-10T17:56:25.922Z,97702.66
2023-01-10T17:58:53.804Z,97701.94
2023-01-10T18:01:25.912Z,97708.56
2023-01-10T18:03:53.941Z,97714.94
2023-01-10T18:06:25.510Z,97714.34
2023-01-10T18:08:54.009Z,97727.22
2023-01-10T18:11:23.488Z,97722.50
2023-01-10T18:13:50.771Z,97726.91
2023-01-10T18:16:18.010Z,97731.22
2023-01-10T18:18:45.273Z,97731.13
2023-01-10T18:21:19.269Z,97733.53
2023-01-10T18:23:47.028Z,97736.59
2023-01-10T18:26:14.805Z,97738.91
2023-01-10T18:28:44.699Z,97740.91
2023-01-10T18:31:14.418Z,97747.75
2023-01-10T18:33:42.216Z,97747.78
2023-01-10T18:36:15.607Z,97743.72
2023-01-10T18:38:43.949Z,97753.56
2023-01-10T18:41:11.323Z,97753.63
2023-01-10T18:43:38.616Z,97746.09
2023-01-10T18:46:11.076Z,97751.38
2023-01-10T18:48:38.762Z,97753.66
2023-01-10T18:51:06.964Z,97757.25
2023-01-10T18:53:34.181Z,97752.69
2023-01-10T18:56:05.050Z,97754.50
2023-01-10T18:58:36.612Z,97756.91
2023-01-10T19:01:15.021Z,97752.59
2023-01-10T19:03:43.032Z,97758.31
2023-01-10T19:06:16.027Z,97760.59
2023-01-10T19:08:45.060Z,97758.03
2023-01-10T19:11:16.077Z,97757.66
2023-01-10T19:13:48.928Z,97760.63
2023-01-10T19:16:26.499Z,97767.31
2023-01-10T19:19:04.472Z,97771.38
2023-01-10T19:21:34.220Z,97768.66
2023-01-10T19:24:05.506Z,97770.28
2023-01-10T19:26:33.622Z,97764.78
2023-01-10T19:29:03.889Z,97766.50
2023-01-10T19:31:31.187Z,97769.28
2023-01-10T19:34:00.380Z,97768.44
2023-01-10T19:36:29.309Z,97775.25
2023-01-10T19:38:58.577Z,97776.44
2023-01-10T19:41:28.527Z,97771.28
2023-01-10T19:44:00.960Z,97770.63
2023-01-10T19:46:31.789Z,97772.78
2023-01-10T19:49:03.355Z,97781.25
2023-01-10T19:51:30.498Z,97792.03
2023-01-10T19:53:57.760Z,97790.09
2023-01-10T19:56:25.262Z,97788.63
2023-01-10T19:58:54.892Z,97779.19
2023-01-10T20:01:26.214Z,97787.28
2023-01-10T20:03:57.326Z,97793.66
2023-01-10T20:06:28.125Z,97787.34
2023-01-10T20:08:58.602Z,97783.09
2023-01-10T20:11:39.659Z,97791.13
2023-01-10T20:14:11.816Z,97786.47
2023-01-10T20:16:39.020Z,97792.53
2023-01-10T20:19:09.811Z,97794.72
2023-01-10T20:21:38.502Z,97785.44
2023-01-10T20:24:17.897Z,97790.41
2023-01-10T20:26:48.347Z,97787.78
2023-01-10T20:29:16.695Z,97796.19
2023-01-10T20:31:47.359Z,97800.88
2023-01-10T20:34:14.717Z,97792.22
2023-01-10T20:36:41.902Z,97798.06
2023-01-10T20:39:09.151Z,97805.88
2023-01-10T20:41:37.333Z,97796.69
2023-01-10T20:44:04.808Z,97797.19
2023-01-10T20:46:33.064Z,97798.19
2023-01-10T20:49:02.600Z,97795.63
2023-01-10T20:51:35.495Z,97798.97
2023-01-10T20:54:05.947Z,97805.66
2023-01-10T20:56:35.381Z,97799.31
2023-01-10T20:59:03.381Z,97803.09
2023-01-10T21:01:35.144Z,97806.13
2023-01-10T21:04:06.166Z,97809.25
2023-01-10T21:06:35.719Z,97806.13
2023-01-10T21:09:05.256Z,97799.94
2023-01-10T21:11:41.041Z,97800.59
2023-01-10T21:14:14.904Z,97811.09
2023-01-10T21:16:42.029Z,97808.53
2023-01-10T21:19:13.655Z,97801.91
2023-01-10T21:21:42.464Z,97803.94
2023-01-10T21:24:10.247Z,97806.31
2023-01-10T21:26:37.742Z,97810.97
2023-01-10T21:29:04.945Z,97807.97
2023-01-10T21:31:32.627Z,97808.16
2023-01-10T21:33:59.908Z,97815.72
2023-01-10T21:36:27.065Z,97810.66
2023-01-10T21:38:54.378Z,97819.44
2023-01-10T21:41:40.364Z,97825.31
2023-01-10T21:44:08.647Z,97823.75
2023-01-10T21:46:36.814Z,97833.88
2023-01-10T21:49:05.244Z,97839.78
2023-01-10T21:51:33.131Z,97830.66
2023-01-10T21:54:00.358Z,97836.38
2023-01-10T21:56:27.542Z,97840.63
2023-01-10T21:58:56.016Z,97846.97
2023-01-10T22:01:23.461Z,97853.06
2023-01-10T22:03:50.674Z,97839.88
2023-01-10T22:06:17.886Z,97845.81
2023-01-10T22:08:45.168Z,97848.94
2023-01-10T22:11:12.404Z,97847.72
2023-01-10T22:13:39.674Z,97852.53
2023-01-10T22:16:07.529Z,97852.28
2023-01-10T22:18:34.913Z,97853.09
2023-01-10T22:21:02.546Z,97852.63
2023-01-10T22:23:31.051Z,97855.38
2023-01-10T22:26:17.052Z,97859.06
2023-01-10T22:28:44.307Z,97861.44
2023-01-10T22:31:11.812Z,97862.28
2023-01-10T22:33:39.389Z,97856.66
2023-01-10T22:36:16.729Z,97866.06
2023-01-10T22:38:45.728Z,97860.75
2023-01-10T22:41:26.708Z,97858.88
2023-01-10T22:43:56.030Z,97864.63
2023-01-10T22:46:24.142Z,97861.22
2023-01-10T22:48:52.213Z,97862.94
2023-01-10T22:51:21.285Z,97861.31
2023-01-10T22:53:59.388Z,97857.66
2023-01-10T22:56:26.890Z,97863.50
2023-01-10T22:58:54.036Z,97867.91
2023-01-10T23:01:23.565Z,97864.63
2023-01-10T23:03:51.627Z,97865.69
2023-01-10T23:06:19.605Z,97862.28
2023-01-10T23:08:47.285Z,97857.78
2023-01-10T23:11:17.005Z,97860.91
2023-01-10T23:13:46.217Z,97859.53
2023-01-10T23:16:28.737Z,97860.34
2023-01-10T23:18:57.751Z,97852.06
2023-01-10T23:21:26.478Z,97860.53
2023-01-10T23:23:55.144Z,97856.66
2023-01-10T23:26:22.629Z,97859.06
2023-01-10T23:28:51.801Z,97865.34
2023-01-10T23:31:24.715Z,97856.78
2023-01-10T23:33:52.219Z,97856.91
2023-01-10T23:36:19.740Z,97858.41
2023-01-10T23:38:46.933Z,97859.63
2023-01-10T23:41:14.178Z,97854.78
2023-01-10T23:43:41.424Z,97862.53
2023-01-10T23:46:09.430Z,97856.56
2023-01-10T23:48:37.129Z,97858.69
2023-01-10T23:51:07.755Z,97861.66
2023-01-10T23:53:35.029Z,97859.81
2023-01-10T23:56:13.889Z,97862.59
2023-01-10T23:58:41.646Z,97852.44
